sensor_id;sensor_type;location;lat;lon;timestamp;pressure;altitude;pressure_sealevel;temperature;humidity
47374;BME280;33123;50.118;10.272;2022-07-17T00:02:16;98607.81;;;16.41;45.75
47374;BME280;33123;50.118;10.272;2022-07-17T00:04:44;98608.31;;;16.37;45.91
47374;BME280;33123;50.118;10.272;2022-07-17T00:07:11;98610.16;;;16.32;46.14
47374;BME280;33123;50.118;10.272;2022-07-17T00:09:37;98609.63;;;16.30;46.03
47374;BME280;33123;50.118;10.272;2022-07-17T00:12:04;98612.81;;;16.27;46.25
47374;BME280;33123;50.118;10.272;2022-07-17T00:14:31;98618.38;;;16.20;46.60
47374;BME280;33123;50.118;10.272;2022-07-17T00:16:58;98618.31;;;16.10;46.71
47374;BME280;33123;50.118;10.272;2022-07-17T00:19:25;98616.66;;;15.99;46.79
47374;BME280;33123;50.118;10.272;2022-07-17T00:21:53;98618.47;;;15.83;47.39
47374;BME280;33123;50.118;10.272;2022-07-17T00:24:20;98613.84;;;15.68;47.88
47374;BME280;33123;50.118;10.272;2022-07-17T00:26:47;98609.97;;;15.54;48.00
47374;BME280;33123;50.118;10.272;2022-07-17T00:29:13;98608.84;;;15.40;48.12
47374;BME280;33123;50.118;10.272;2022-07-17T00:31:40;98615.66;;;15.30;48.68
47374;BME280;33123;50.118;10.272;2022-07-17T00:34:07;98610.00;;;15.17;49.08
47374;BME280;33123;50.118;10.272;2022-07-17T00:36:34;98624.72;;;15.02;49.53
47374;BME280;33123;50.118;10.272;2022-07-17T00:39:02;98594.13;;;14.68;50.09
47374;BME280;33123;50.118;10.272;2022-07-17T00:41:29;98627.31;;;14.70;50.28
47374;BME280;33123;50.118;10.272;2022-07-17T00:44:02;98626.91;;;14.57;50.78
47374;BME280;33123;50.118;10.272;2022-07-17T00:46:29;98631.06;;;14.47;50.95
47374;BME280;33123;50.118;10.272;2022-07-17T00:48:56;98637.88;;;14.43;51.00
47374;BME280;33123;50.118;10.272;2022-07-17T00:51:22;98634.34;;;14.38;50.94
47374;BME280;33123;50.118;10.272;2022-07-17T00:53:57;98636.41;;;14.31;51.48
47374;BME280;33123;50.118;10.272;2022-07-17T00:56:27;98624.63;;;14.21;52.08
47374;BME280;33123;50.118;10.272;2022-07-17T00:58:53;98596.59;;;13.87;52.35
47374;BME280;33123;50.118;10.272;2022-07-17T01:01:20;98631.25;;;14.02;52.56
47374;BME280;33123;50.118;10.272;2022-07-17T01:03:47;98637.47;;;13.91;52.82
47374;BME280;33123;50.118;10.272;2022-07-17T01:06:14;98627.31;;;13.83;53.38
47374;BME280;33123;50.118;10.272;2022-07-17T01:08:40;98631.16;;;13.75;53.56
47374;BME280;33123;50.118;10.272;2022-07-17T01:11:08;98629.22;;;13.70;53.86
47374;BME280;33123;50.118;10.272;2022-07-17T01:13:37;98633.44;;;13.66;54.12
47374;BME280;33123;50.118;10.272;2022-07-17T01:16:04;98609.66;;;13.55;54.24
47374;BME280;33123;50.118;10.272;2022-07-17T01:18:31;98623.63;;;13.67;53.97
47374;BME280;33123;50.118;10.272;2022-07-17T01:21:04;98625.47;;;13.66;54.19
47374;BME280;33123;50.118;10.272;2022-07-17T01:23:30;98623.84;;;13.65;54.20
47374;BME280;33123;50.118;10.272;2022-07-17T01:25:57;98619.59;;;13.64;54.42
47374;BME280;33123;50.118;10.272;2022-07-17T01:28:24;98624.34;;;13.62;54.40
47374;BME280;33123;50.118;10.272;2022-07-17T01:30:52;98568.94;;;13.22;54.32
47374;BME280;33123;50.118;10.272;2022-07-17T01:33:19;98625.94;;;13.63;54.42
47374;BME280;33123;50.118;10.272;2022-07-17T01:35:46;98623.31;;;13.63;54.44
47374;BME280;33123;50.118;10.272;2022-07-17T01:38:14;98627.25;;;13.61;54.50
47374;BME280;33123;50.118;10.272;2022-07-17T01:40:40;98621.78;;;13.51;54.26
47374;BME280;33123;50.118;10.272;2022-07-17T01:43:07;98621.72;;;13.45;54.53
47374;BME280;33123;50.118;10.272;2022-07-17T01:45:34;98622.91;;;13.38;54.62
47374;BME280;33123;50.118;10.272;2022-07-17T01:48:00;98625.72;;;13.31;54.81
47374;BME280;33123;50.118;10.272;2022-07-17T01:50:27;98619.78;;;13.24;55.37
47374;BME280;33123;50.118;10.272;2022-07-17T01:52:54;98628.66;;;13.18;55.69
47374;BME280;33123;50.118;10.272;2022-07-17T01:55:21;98615.66;;;13.16;55.84
47374;BME280;33123;50.118;10.272;2022-07-17T01:57:48;98618.31;;;13.16;56.05
47374;BME280;33123;50.118;10.272;2022-07-17T02:00:17;98617.75;;;13.14;56.14
47374;BME280;33123;50.118;10.272;2022-07-17T02:02:44;98619.34;;;13.15;56.15
47374;BME280;33123;50.118;10.272;2022-07-17T02:05:10;98625.22;;;13.17;56.12
47374;BME280;33123;50.118;10.272;2022-07-17T02:07:37;98597.13;;;13.00;56.20
47374;BME280;33123;50.118;10.272;2022-07-17T02:10:06;98627.59;;;13.19;56.13
47374;BME280;33123;50.118;10.272;2022-07-17T02:12:35;98621.53;;;13.18;56.30
47374;BME280;33123;50.118;10.272;2022-07-17T02:15:02;98618.78;;;13.13;56.15
47374;BME280;33123;50.118;10.272;2022-07-17T02:17:29;98613.91;;;13.05;56.12
47374;BME280;33123;50.118;10.272;2022-07-17T02:19:56;98632.50;;;13.10;56.12
47374;BME280;33123;50.118;10.272;2022-07-17T02:22:22;98622.63;;;13.06;56.10
47374;BME280;33123;50.118;10.272;2022-07-17T02:24:49;98623.81;;;12.98;56.47
47374;BME280;33123;50.118;10.272;2022-07-17T02:27:15;98621.31;;;12.91;56.49
47374;BME280;33123;50.118;10.272;2022-07-17T02:29:43;98621.47;;;12.85;56.92
47374;BME280;33123;50.118;10.272;2022-07-17T02:32:10;98620.34;;;12.81;57.04
47374;BME280;33123;50.118;10.272;2022-07-17T02:34:37;98620.25;;;12.76;57.02
47374;BME280;33123;50.118;10.272;2022-07-17T02:37:03;98619.13;;;12.72;57.35
47374;BME280;33123;50.118;10.272;2022-07-17T02:39:30;98624.06;;;12.68;57.68
47374;BME280;33123;50.118;10.272;2022-07-17T02:41:56;98620.63;;;12.67;57.69
47374;BME280;33123;50.118;10.272;2022-07-17T02:44:23;98627.53;;;12.68;57.82
47374;BME280;33123;50.118;10.272;2022-07-17T02:46:51;98630.72;;;12.71;57.57
47374;BME280;33123;50.118;10.272;2022-07-17T02:49:18;98631.31;;;12.73;57.54
47374;BME280;33123;50.118;10.272;2022-07-17T02:51:44;98632.91;;;12.74;57.46
47374;BME280;33123;50.118;10.272;2022-07-17T02:54:11;98628.66;;;12.73;57.53
47374;BME280;33123;50.118;10.272;2022-07-17T02:56:37;98627.88;;;12.72;57.15
47374;BME280;33123;50.118;10.272;2022-07-17T02:59:04;98626.47;;;12.69;57.20
47374;BME280;33123;50.118;10.272;2022-07-17T03:01:30;98633.50;;;12.64;57.65
47374;BME280;33123;50.118;10.272;2022-07-17T03:03:58;98626.53;;;12.58;57.84
47374;BME280;33123;50.118;10.272;2022-07-17T03:06:25;98627.81;;;12.55;57.90
47374;BME280;33123;50.118;10.272;2022-07-17T03:08:52;98617.47;;;12.54;58.05
47374;BME280;33123;50.118;10.272;2022-07-17T03:11:18;98628.63;;;12.56;57.88
47374;BME280;33123;50.118;10.272;2022-07-17T03:13:45;98627.81;;;12.55;58.16
47374;BME280;33123;50.118;10.272;2022-07-17T03:16:11;98629.41;;;12.56;58.26
47374;BME280;33123;50.118;10.272;2022-07-17T03:18:38;98623.09;;;12.57;58.31
47374;BME280;33123;50.118;10.272;2022-07-17T03:21:06;98634.22;;;12.59;58.33
47374;BME280;33123;50.118;10.272;2022-07-17T03:23:33;98627.31;;;12.58;58.03
47374;BME280;33123;50.118;10.272;2022-07-17T03:26:00;98630.56;;;12.60;58.29
47374;BME280;33123;50.118;10.272;2022-07-17T03:28:27;98628.94;;;12.59;58.44
47374;BME280;33123;50.118;10.272;2022-07-17T03:30:53;98637.44;;;12.61;58.14
47374;BME280;33123;50.118;10.272;2022-07-17T03:33:20;98639.59;;;12.64;58.08
47374;BME280;33123;50.118;10.272;2022-07-17T03:35:46;98636.41;;;12.62;58.24
47374;BME280;33123;50.118;10.272;2022-07-17T03:38:14;98639.41;;;12.66;58.16
47374;BME280;33123;50.118;10.272;2022-07-17T03:44:04;98645.78;;;12.70;57.99
47374;BME280;33123;50.118;10.272;2022-07-17T03:46:31;98641.31;;;12.71;57.92
47374;BME280;33123;50.118;10.272;2022-07-17T03:48:58;98644.53;;;12.73;57.87
47374;BME280;33123;50.118;10.272;2022-07-17T03:51:25;98635.31;;;12.75;57.88
47374;BME280;33123;50.118;10.272;2022-07-17T03:53:54;98641.75;;;12.79;57.98
47374;BME280;33123;50.118;10.272;2022-07-17T03:56:20;98648.38;;;12.82;57.86
47374;BME280;33123;50.118;10.272;2022-07-17T03:58:47;98641.03;;;12.84;57.56
47374;BME280;33123;50.118;10.272;2022-07-17T04:01:29;98643.78;;;12.89;57.63
47374;BME280;33123;50.118;10.272;2022-07-17T04:03:56;98644.56;;;12.89;57.54
47374;BME280;33123;50.118;10.272;2022-07-17T04:06:22;98653.63;;;12.93;57.38
47374;BME280;33123;50.118;10.272;2022-07-17T04:08:49;98648.91;;;12.95;57.27
47374;BME280;33123;50.118;10.272;2022-07-17T04:11:17;98649.22;;;12.99;57.26
47374;BME280;33123;50.118;10.272;2022-07-17T04:13:45;98647.97;;;13.02;57.38
47374;BME280;33123;50.118;10.272;2022-07-17T04:16:12;98643.00;;;13.05;57.29
47374;BME280;33123;50.118;10.272;2022-07-17T04:18:38;98636.44;;;13.08;57.30
47374;BME280;33123;50.118;10.272;2022-07-17T04:21:07;98648.25;;;13.17;57.25
47374;BME280;33123;50.118;10.272;2022-07-17T04:23:35;98645.91;;;13.20;57.33
47374;BME280;33123;50.118;10.272;2022-07-17T04:26:02;98650.34;;;13.32;57.05
47374;BME280;33123;50.118;10.272;2022-07-17T04:28:30;98648.38;;;13.39;56.96
47374;BME280;33123;50.118;10.272;2022-07-17T04:30:57;98649.31;;;13.50;56.63
47374;BME280;33123;50.118;10.272;2022-07-17T04:33:23;98649.47;;;13.60;56.66
47374;BME280;33123;50.118;10.272;2022-07-17T04:35:51;98650.41;;;13.70;56.47
47374;BME280;33123;50.118;10.272;2022-07-17T04:38:17;98649.53;;;13.82;56.26
47374;BME280;33123;50.118;10.272;2022-07-17T04:40:44;98648.94;;;13.96;56.21
47374;BME280;33123;50.118;10.272;2022-07-17T04:43:12;98647.31;;;14.12;55.86
47374;BME280;33123;50.118;10.272;2022-07-17T04:45:40;98649.66;;;14.31;55.66
47374;BME280;33123;50.118;10.272;2022-07-17T04:48:06;98641.41;;;14.49;55.27
47374;BME280;33123;50.118;10.272;2022-07-17T04:50:33;98647.75;;;14.70;54.55
47374;BME280;33123;50.118;10.272;2022-07-17T04:53:00;98658.31;;;14.92;53.63
47374;BME280;33123;50.118;10.272;2022-07-17T04:55:27;98650.84;;;15.11;53.58
47374;BME280;33123;50.118;10.272;2022-07-17T04:58:30;98659.34;;;15.45;53.44
47374;BME280;33123;50.118;10.272;2022-07-17T05:00:58;98662.81;;;15.77;52.53
47374;BME280;33123;50.118;10.272;2022-07-17T05:03:25;98669.63;;;16.05;51.79
47374;BME280;33123;50.118;10.272;2022-07-17T05:05:51;98667.38;;;16.34;50.93
47374;BME280;33123;50.118;10.272;2022-07-17T05:08:18;98669.63;;;16.63;50.10
47374;BME280;33123;50.118;10.272;2022-07-17T05:10:45;98670.25;;;16.91;49.37
47374;BME280;33123;50.118;10.272;2022-07-17T05:13:11;98670.56;;;17.20;48.53
47374;BME280;33123;50.118;10.272;2022-07-17T05:15:38;98671.69;;;17.49;47.79
47374;BME280;33123;50.118;10.272;2022-07-17T05:18:06;98670.59;;;17.76;47.00
47374;BME280;33123;50.118;10.272;2022-07-17T05:20:33;98668.69;;;18.02;46.15
47374;BME280;33123;50.118;10.272;2022-07-17T05:23:00;98678.25;;;18.28;45.78
47374;BME280;33123;50.118;10.272;2022-07-17T05:25:27;98678.94;;;18.54;45.30
47374;BME280;33123;50.118;10.272;2022-07-17T05:27:53;98680.19;;;18.82;44.70
47374;BME280;33123;50.118;10.272;2022-07-17T05:30:20;98671.50;;;19.06;44.24
47374;BME280;33123;50.118;10.272;2022-07-17T05:32:46;98681.50;;;19.29;43.08
47374;BME280;33123;50.118;10.272;2022-07-17T05:35:14;98685.63;;;19.50;42.80
47374;BME280;33123;50.118;10.272;2022-07-17T05:37:41;98684.41;;;19.72;42.04
47374;BME280;33123;50.118;10.272;2022-07-17T05:40:08;98685.72;;;19.98;42.38
47374;BME280;33123;50.118;10.272;2022-07-17T05:42:35;98688.16;;;20.24;41.59
47374;BME280;33123;50.118;10.272;2022-07-17T05:45:01;98692.19;;;20.45;40.86
47374;BME280;33123;50.118;10.272;2022-07-17T05:47:28;98694.56;;;20.71;40.42
47374;BME280;33123;50.118;10.272;2022-07-17T05:49:55;98694.56;;;20.95;39.47
47374;BME280;33123;50.118;10.272;2022-07-17T05:52:23;98695.69;;;21.26;40.08
47374;BME280;33123;50.118;10.272;2022-07-17T05:54:49;98696.44;;;21.51;37.95
47374;BME280;33123;50.118;10.272;2022-07-17T05:57:16;98701.19;;;21.73;38.05
47374;BME280;33123;50.118;10.272;2022-07-17T05:59:43;98706.09;;;21.98;37.24
47374;BME280;33123;50.118;10.272;2022-07-17T06:02:10;98707.25;;;22.25;37.13
47374;BME280;33123;50.118;10.272;2022-07-17T06:04:36;98707.78;;;22.54;37.41
47374;BME280;33123;50.118;10.272;2022-07-17T06:07:03;98711.13;;;22.87;35.92
47374;BME280;33123;50.118;10.272;2022-07-17T06:09:31;98709.19;;;23.15;35.41
47374;BME280;33123;50.118;10.272;2022-07-17T06:11:58;98702.59;;;23.44;34.74
47374;BME280;33123;50.118;10.272;2022-07-17T06:14:24;98696.63;;;23.69;34.20
47374;BME280;33123;50.118;10.272;2022-07-17T06:16:51;98699.78;;;23.94;33.27
47374;BME280;33123;50.118;10.272;2022-07-17T06:19:18;98698.28;;;24.10;32.73
47374;BME280;33123;50.118;10.272;2022-07-17T06:21:44;98692.56;;;24.12;32.34
47374;BME280;33123;50.118;10.272;2022-07-17T06:24:11;98699.47;;;24.27;32.19
47374;BME280;33123;50.118;10.272;2022-07-17T06:26:39;98699.97;;;24.37;32.33
47374;BME280;33123;50.118;10.272;2022-07-17T06:29:06;98700.84;;;24.55;32.85
47374;BME280;33123;50.118;10.272;2022-07-17T06:31:32;98699.47;;;24.84;32.36
47374;BME280;33123;50.118;10.272;2022-07-17T06:33:59;98703.97;;;25.14;32.14
47374;BME280;33123;50.118;10.272;2022-07-17T06:36:26;98701.28;;;25.40;31.43
47374;BME280;33123;50.118;10.272;2022-07-17T06:38:52;98706.16;;;25.64;31.14
47374;BME280;33123;50.118;10.272;2022-07-17T06:41:19;98701.38;;;25.96;30.94
47374;BME280;33123;50.118;10.272;2022-07-17T06:43:47;98710.31;;;26.26;30.51
47374;BME280;33123;50.118;10.272;2022-07-17T06:46:13;98714.84;;;26.51;29.54
47374;BME280;33123;50.118;10.272;2022-07-17T06:48:40;98718.72;;;26.71;29.91
47374;BME280;33123;50.118;10.272;2022-07-17T06:51:06;98709.22;;;26.86;29.07
47374;BME280;33123;50.118;10.272;2022-07-17T06:53:33;98718.53;;;26.97;29.93
47374;BME280;33123;50.118;10.272;2022-07-17T06:56:00;98709.00;;;27.00;28.94
47374;BME280;33123;50.118;10.272;2022-07-17T06:58:26;98711.19;;;27.06;29.32
47374;BME280;33123;50.118;10.272;2022-07-17T07:00:54;98708.94;;;27.29;29.98
47374;BME280;33123;50.118;10.272;2022-07-17T07:03:21;98702.97;;;27.57;29.65
47374;BME280;33123;50.118;10.272;2022-07-17T07:05:48;98698.34;;;27.91;28.71
47374;BME280;33123;50.118;10.272;2022-07-17T07:08:16;98691.50;;;28.30;27.91
47374;BME280;33123;50.118;10.272;2022-07-17T07:10:42;98648.34;;;28.37;27.82
47374;BME280;33123;50.118;10.272;2022-07-17T07:13:09;98694.09;;;28.87;27.56
47374;BME280;33123;50.118;10.272;2022-07-17T07:15:36;98700.16;;;29.09;26.48
47374;BME280;33123;50.118;10.272;2022-07-17T07:18:04;98715.47;;;29.29;26.99
47374;BME280;33123;50.118;10.272;2022-07-17T07:20:30;98711.56;;;29.42;26.27
47374;BME280;33123;50.118;10.272;2022-07-17T07:22:57;98723.56;;;29.54;25.80
47374;BME280;33123;50.118;10.272;2022-07-17T07:25:24;98709.84;;;29.62;26.02
47374;BME280;33123;50.118;10.272;2022-07-17T07:27:50;98722.31;;;29.79;25.21
47374;BME280;33123;50.118;10.272;2022-07-17T07:30:17;98727.25;;;29.89;24.70
47374;BME280;33123;50.118;10.272;2022-07-17T07:32:44;98720.41;;;29.95;24.24
47374;BME280;33123;50.118;10.272;2022-07-17T07:35:12;98730.97;;;30.13;23.69
47374;BME280;33123;50.118;10.272;2022-07-17T07:37:39;98727.47;;;30.28;25.00
47374;BME280;33123;50.118;10.272;2022-07-17T07:40:06;98734.28;;;30.54;24.52
47374;BME280;33123;50.118;10.272;2022-07-17T07:42:33;98727.38;;;30.72;24.33
47374;BME280;33123;50.118;10.272;2022-07-17T07:45:00;98725.97;;;30.97;24.58
47374;BME280;33123;50.118;10.272;2022-07-17T07:47:27;98727.94;;;31.32;24.11
47374;BME280;33123;50.118;10.272;2022-07-17T07:49:54;98718.56;;;31.52;22.88
47374;BME280;33123;50.118;10.272;2022-07-17T07:52:22;98719.13;;;31.81;23.20
47374;BME280;33123;50.118;10.272;2022-07-17T07:54:49;98719.22;;;31.85;22.02
47374;BME280;33123;50.118;10.272;2022-07-17T07:57:16;98712.69;;;32.12;22.54
47374;BME280;33123;50.118;10.272;2022-07-17T07:59:43;98700.84;;;32.27;22.61
47374;BME280;33123;50.118;10.272;2022-07-17T08:02:09;98709.13;;;32.57;21.70
47374;BME280;33123;50.118;10.272;2022-07-17T08:04:36;98697.66;;;32.75;21.12
47374;BME280;33123;50.118;10.272;2022-07-17T08:07:03;98692.13;;;32.68;21.08
47374;BME280;33123;50.118;10.272;2022-07-17T08:09:31;98682.84;;;32.76;21.15
47374;BME280;33123;50.118;10.272;2022-07-17T08:11:57;98683.16;;;32.18;20.40
47374;BME280;33123;50.118;10.272;2022-07-17T08:14:24;98690.03;;;32.57;21.83
47374;BME280;33123;50.118;10.272;2022-07-17T08:16:51;98687.84;;;32.70;21.51
47374;BME280;33123;50.118;10.272;2022-07-17T08:19:17;98686.22;;;32.92;20.54
47374;BME280;33123;50.118;10.272;2022-07-17T08:21:44;98678.41;;;33.21;21.28
47374;BME280;33123;50.118;10.272;2022-07-17T08:24:11;98686.63;;;33.54;20.29
47374;BME280;33123;50.118;10.272;2022-07-17T08:26:39;98686.91;;;33.83;20.64
47374;BME280;33123;50.118;10.272;2022-07-17T08:29:06;98687.13;;;34.04;20.60
47374;BME280;33123;50.118;10.272;2022-07-17T08:31:32;98687.56;;;34.10;20.01
47374;BME280;33123;50.118;10.272;2022-07-17T08:33:59;98690.81;;;34.26;20.33
47374;BME280;33123;50.118;10.272;2022-07-17T08:36:26;98690.34;;;34.17;19.08
47374;BME280;33123;50.118;10.272;2022-07-17T08:38:52;98687.22;;;34.15;19.78
47374;BME280;33123;50.118;10.272;2022-07-17T08:41:19;98686.25;;;33.97;19.87
47374;BME280;33123;50.118;10.272;2022-07-17T08:43:49;98684.16;;;33.83;19.67
47374;BME280;33123;50.118;10.272;2022-07-17T08:46:17;98679.81;;;33.78;20.20
47374;BME280;33123;50.118;10.272;2022-07-17T08:48:45;98682.59;;;33.82;19.46
47374;BME280;33123;50.118;10.272;2022-07-17T08:51:15;98677.31;;;33.62;19.30
47374;BME280;33123;50.118;10.272;2022-07-17T08:53:43;98666.06;;;32.74;19.46
47374;BME280;33123;50.118;10.272;2022-07-17T08:56:10;98663.56;;;32.62;20.64
47374;BME280;33123;50.118;10.272;2022-07-17T08:58:36;98665.91;;;32.60;21.22
47374;BME280;33123;50.118;10.272;2022-07-17T09:01:05;98668.56;;;32.56;20.47
47374;BME280;33123;50.118;10.272;2022-07-17T09:03:32;98661.88;;;32.53;20.20
47374;BME280;33123;50.118;10.272;2022-07-17T09:05:58;98663.34;;;32.47;20.11
47374;BME280;33123;50.118;10.272;2022-07-17T09:08:25;98663.56;;;32.62;19.85
47374;BME280;33123;50.118;10.272;2022-07-17T09:10:57;98657.47;;;32.72;21.91
47374;BME280;33123;50.118;10.272;2022-07-17T09:13:28;98660.59;;;33.00;19.78
47374;BME280;33123;50.118;10.272;2022-07-17T09:15:59;98663.59;;;33.25;20.21
47374;BME280;33123;50.118;10.272;2022-07-17T09:18:43;98664.50;;;33.33;19.46
47374;BME280;33123;50.118;10.272;2022-07-17T09:21:16;98671.28;;;33.46;20.07
47374;BME280;33123;50.118;10.272;2022-07-17T09:23:43;98664.41;;;33.59;19.51
47374;BME280;33123;50.118;10.272;2022-07-17T09:26:11;98649.81;;;33.45;17.75
47374;BME280;33123;50.118;10.272;2022-07-17T09:28:44;98662.25;;;33.42;18.53
47374;BME280;33123;50.118;10.272;2022-07-17T09:31:10;98661.09;;;33.09;18.22
47374;BME280;33123;50.118;10.272;2022-07-17T09:33:37;98653.28;;;33.08;19.18
47374;BME280;33123;50.118;10.272;2022-07-17T09:36:08;98650.19;;;33.09;19.15
47374;BME280;33123;50.118;10.272;2022-07-17T09:38:37;98644.47;;;33.22;18.89
47374;BME280;33123;50.118;10.272;2022-07-17T09:41:08;98646.69;;;33.43;18.45
47374;BME280;33123;50.118;10.272;2022-07-17T09:43:42;98660.97;;;33.70;17.51
47374;BME280;33123;50.118;10.272;2022-07-17T09:46:12;98641.94;;;33.80;17.97
47374;BME280;33123;50.118;10.272;2022-07-17T09:48:42;98641.75;;;34.03;17.99
47374;BME280;33123;50.118;10.272;2022-07-17T09:51:18;98645.00;;;34.20;17.27
47374;BME280;33123;50.118;10.272;2022-07-17T09:53:46;98636.31;;;34.07;16.46
47374;BME280;33123;50.118;10.272;2022-07-17T09:56:15;98638.31;;;34.10;17.18
47374;BME280;33123;50.118;10.272;2022-07-17T09:58:44;98640.28;;;34.09;16.23
47374;BME280;33123;50.118;10.272;2022-07-17T10:01:13;98641.97;;;33.84;16.63
47374;BME280;33123;50.118;10.272;2022-07-17T10:03:40;98638.75;;;33.75;16.08
47374;BME280;33123;50.118;10.272;2022-07-17T10:06:08;98638.31;;;33.69;16.39
47374;BME280;33123;50.118;10.272;2022-07-17T10:08:37;98632.84;;;33.66;15.99
47374;BME280;33123;50.118;10.272;2022-07-17T10:11:04;98643.19;;;33.90;16.74
47374;BME280;33123;50.118;10.272;2022-07-17T10:13:31;98645.09;;;34.30;17.43
47374;BME280;33123;50.118;10.272;2022-07-17T10:15:59;98641.81;;;34.65;15.55
47374;BME280;33123;50.118;10.272;2022-07-17T10:18:34;98644.75;;;35.08;15.30
47374;BME280;33123;50.118;10.272;2022-07-17T10:21:06;98645.28;;;35.46;16.08
47374;BME280;33123;50.118;10.272;2022-07-17T10:23:33;98633.16;;;35.58;15.65
47374;BME280;33123;50.118;10.272;2022-07-17T10:26:01;98639.06;;;35.85;15.59
47374;BME280;33123;50.118;10.272;2022-07-17T10:28:38;98634.75;;;36.19;15.23
47374;BME280;33123;50.118;10.272;2022-07-17T10:31:05;98634.69;;;36.59;15.09
47374;BME280;33123;50.118;10.272;2022-07-17T10:33:32;98632.28;;;36.82;14.85
47374;BME280;33123;50.118;10.272;2022-07-17T10:35:58;98630.66;;;36.99;15.05
47374;BME280;33123;50.118;10.272;2022-07-17T10:38:26;98632.19;;;37.04;14.99
47374;BME280;33123;50.118;10.272;2022-07-17T10:40:59;98624.34;;;37.09;14.29
47374;BME280;33123;50.118;10.272;2022-07-17T10:43:27;98623.56;;;37.05;14.67
47374;BME280;33123;50.118;10.272;2022-07-17T10:45:54;98627.47;;;37.08;15.14
47374;BME280;33123;50.118;10.272;2022-07-17T10:48:21;98626.69;;;37.11;14.31
47374;BME280;33123;50.118;10.272;2022-07-17T10:50:51;98627.09;;;37.09;14.14
47374;BME280;33123;50.118;10.272;2022-07-17T10:53:19;98625.34;;;37.44;14.76
47374;BME280;33123;50.118;10.272;2022-07-17T10:55:49;98624.75;;;37.70;14.24
47374;BME280;33123;50.118;10.272;2022-07-17T10:58:22;98628.53;;;37.91;14.00
47374;BME280;33123;50.118;10.272;2022-07-17T11:01:05;98635.03;;;38.11;14.07
47374;BME280;33123;50.118;10.272;2022-07-17T11:03:37;98636.94;;;37.69;14.26
47374;BME280;33123;50.118;10.272;2022-07-17T11:06:13;98640.56;;;37.59;13.31
47374;BME280;33123;50.118;10.272;2022-07-17T11:08:45;98633.38;;;37.72;14.07
47374;BME280;33123;50.118;10.272;2022-07-17T11:11:12;98636.44;;;37.85;13.80
47374;BME280;33123;50.118;10.272;2022-07-17T11:13:39;98634.44;;;37.93;13.44
47374;BME280;33123;50.118;10.272;2022-07-17T11:16:07;98636.28;;;38.03;13.26
47374;BME280;33123;50.118;10.272;2022-07-17T11:18:34;98629.22;;;38.02;13.56
47374;BME280;33123;50.118;10.272;2022-07-17T11:21:03;98635.56;;;37.99;13.66
47374;BME280;33123;50.118;10.272;2022-07-17T11:23:32;98629.28;;;37.95;13.74
47374;BME280;33123;50.118;10.272;2022-07-17T11:26:01;98626.34;;;37.64;13.11
47374;BME280;33123;50.118;10.272;2022-07-17T11:28:30;98624.13;;;37.48;13.86
47374;BME280;33123;50.118;10.272;2022-07-17T11:30:58;98617.13;;;37.30;13.93
47374;BME280;33123;50.118;10.272;2022-07-17T11:33:26;98619.47;;;37.31;14.59
47374;BME280;33123;50.118;10.272;2022-07-17T11:35:53;98614.75;;;37.39;13.63
47374;BME280;33123;50.118;10.272;2022-07-17T11:38:25;98606.94;;;37.26;13.37
47374;BME280;33123;50.118;10.272;2022-07-17T11:40:52;98606.97;;;37.19;13.62
47374;BME280;33123;50.118;10.272;2022-07-17T11:43:19;98607.09;;;36.98;13.17
47374;BME280;33123;50.118;10.272;2022-07-17T11:45:45;98611.16;;;36.61;14.05
47374;BME280;33123;50.118;10.272;2022-07-17T11:48:13;98612.00;;;36.40;14.77
47374;BME280;33123;50.118;10.272;2022-07-17T11:50:41;98605.31;;;36.31;14.16
47374;BME280;33123;50.118;10.272;2022-07-17T11:53:18;98610.44;;;36.29;13.74
47374;BME280;33123;50.118;10.272;2022-07-17T11:55:44;98601.81;;;36.19;12.65
47374;BME280;33123;50.118;10.272;2022-07-17T11:58:11;98605.31;;;36.31;14.21
47374;BME280;33123;50.118;10.272;2022-07-17T12:00:37;98600.22;;;36.33;14.34
47374;BME280;33123;50.118;10.272;2022-07-17T12:03:06;98597.88;;;36.28;13.82
47374;BME280;33123;50.118;10.272;2022-07-17T12:05:34;98593.59;;;36.02;13.65
47374;BME280;33123;50.118;10.272;2022-07-17T12:08:07;98596.34;;;35.69;13.76
47374;BME280;33123;50.118;10.272;2022-07-17T12:10:34;98600.16;;;35.26;13.07
47374;BME280;33123;50.118;10.272;2022-07-17T12:13:02;98593.75;;;34.79;13.26
47374;BME280;33123;50.118;10.272;2022-07-17T12:15:36;98579.66;;;34.07;13.18
47374;BME280;33123;50.118;10.272;2022-07-17T12:18:04;98585.53;;;33.61;13.88
47374;BME280;33123;50.118;10.272;2022-07-17T12:20:42;98590.09;;;33.13;15.13
47374;BME280;33123;50.118;10.272;2022-07-17T12:23:26;98590.28;;;32.94;15.55
47374;BME280;33123;50.118;10.272;2022-07-17T12:26:03;98587.22;;;32.69;15.95
47374;BME280;33123;50.118;10.272;2022-07-17T12:28:29;98585.97;;;32.63;16.61
47374;BME280;33123;50.118;10.272;2022-07-17T12:30:56;98582.56;;;32.69;16.48
47374;BME280;33123;50.118;10.272;2022-07-17T12:33:23;98584.22;;;32.77;15.22
47374;BME280;33123;50.118;10.272;2022-07-17T12:35:49;98568.19;;;32.76;16.88
47374;BME280;33123;50.118;10.272;2022-07-17T12:38:18;98578.25;;;32.98;17.43
47374;BME280;33123;50.118;10.272;2022-07-17T12:40:44;98581.06;;;33.05;16.06
47374;BME280;33123;50.118;10.272;2022-07-17T12:43:11;98576.06;;;33.11;16.80
47374;BME280;33123;50.118;10.272;2022-07-17T12:45:38;98583.16;;;33.19;16.97
47374;BME280;33123;50.118;10.272;2022-07-17T12:48:05;98557.78;;;32.85;16.48
47374;BME280;33123;50.118;10.272;2022-07-17T12:50:32;98570.97;;;32.79;16.70
47374;BME280;33123;50.118;10.272;2022-07-17T12:52:59;98574.81;;;32.75;16.45
47374;BME280;33123;50.118;10.272;2022-07-17T12:55:27;98572.41;;;32.70;16.95
47374;BME280;33123;50.118;10.272;2022-07-17T12:57:54;98568.13;;;32.69;17.32